sensor_id;sensor_type;location;lat;lon;timestamp;pressure;altitude;pressure_sealevel;temperature;humidity
62103;BME280;48077;48.104;11.702;2023-03-21T00:01:27;95713.09;;;4.78;100.00
62103;BME280;48077;48.104;11.702;2023-03-21T00:03:51;95705.75;;;4.74;100.00
62103;BME280;48077;48.104;11.702;2023-03-21T00:06:14;95713.91;;;4.79;100.00
62103;BME280;48077;48.104;11.702;2023-03-21T00:08:39;95712.34;;;4.84;100.00
62103;BME280;48077;48.104;11.702;2023-03-21T00:11:05;95708.47;;;4.87;100.00
62103;BME280;48077;48.104;11.702;2023-03-21T00:13:30;95707.31;;;4.90;100.00
62103;BME280;48077;48.104;11.702;2023-03-21T00:16:05;95700.19;;;4.90;100.00
62103;BME280;48077;48.104;11.702;2023-03-21T00:18:30;95700.00;;;4.92;100.00
62103;BME280;48077;48.104;11.702;2023-03-21T00:20:59;95704.25;;;4.93;100.00
62103;BME280;48077;48.104;11.702;2023-03-21T00:23:23;95695.53;;;4.92;100.00
62103;BME280;48077;48.104;11.702;2023-03-21T00:25:47;95682.44;;;4.84;100.00
62103;BME280;48077;48.104;11.702;2023-03-21T00:28:10;95694.09;;;4.90;100.00
62103;BME280;48077;48.104;11.702;2023-03-21T00:30:33;95694.91;;;4.90;100.00
62103;BME280;48077;48.104;11.702;2023-03-21T00:32:57;95693.06;;;4.91;100.00
62103;BME280;48077;48.104;11.702;2023-03-21T00:35:20;95670.63;;;4.80;100.00
62103;BME280;48077;48.104;11.702;2023-03-21T00:37:43;95670.19;;;4.76;100.00
62103;BME280;48077;48.104;11.702;2023-03-21T00:40:07;95684.94;;;4.92;100.00
62103;BME280;48077;48.104;11.702;2023-03-21T00:42:34;95685.13;;;4.91;100.00
62103;BME280;48077;48.104;11.702;2023-03-21T00:44:58;95667.59;;;4.83;100.00
62103;BME280;48077;48.104;11.702;2023-03-21T00:47:21;95679.22;;;4.89;100.00
62103;BME280;48077;48.104;11.702;2023-03-21T00:49:44;95649.19;;;4.68;100.00
62103;BME280;48077;48.104;11.702;2023-03-21T00:52:09;95660.66;;;4.75;100.00
62103;BME280;48077;48.104;11.702;2023-03-21T00:54:33;95682.69;;;4.89;100.00
62103;BME280;48077;48.104;11.702;2023-03-21T00:56:56;95673.75;;;4.90;100.00
62103;BME280;48077;48.104;11.702;2023-03-21T00:59:20;95640.69;;;4.73;100.00
62103;BME280;48077;48.104;11.702;2023-03-21T01:01:44;95614.34;;;4.58;100.00
62103;BME280;48077;48.104;11.702;2023-03-21T01:04:09;95637.03;;;4.74;100.00
62103;BME280;48077;48.104;11.702;2023-03-21T01:06:36;95643.75;;;4.76;100.00
62103;BME280;48077;48.104;11.702;2023-03-21T01:09:03;95656.25;;;4.89;100.00
62103;BME280;48077;48.104;11.702;2023-03-21T01:11:27;95639.91;;;4.79;100.00
62103;BME280;48077;48.104;11.702;2023-03-21T01:13:51;95664.03;;;4.97;100.00
62103;BME280;48077;48.104;11.702;2023-03-21T01:16:14;95622.19;;;4.73;100.00
62103;BME280;48077;48.104;11.702;2023-03-21T01:18:39;95663.22;;;4.97;100.00
62103;BME280;48077;48.104;11.702;2023-03-21T01:21:10;95663.03;;;4.98;100.00
62103;BME280;48077;48.104;11.702;2023-03-21T01:23:34;95640.22;;;4.91;100.00
62103;BME280;48077;48.104;11.702;2023-03-21T01:25:57;95662.63;;;5.01;100.00
62103;BME280;48077;48.104;11.702;2023-03-21T01:28:21;95653.50;;;5.04;100.00
62103;BME280;48077;48.104;11.702;2023-03-21T01:30:49;95657.38;;;5.08;100.00
62103;BME280;48077;48.104;11.702;2023-03-21T01:33:14;95642.72;;;5.05;100.00
62103;BME280;48077;48.104;11.702;2023-03-21T01:35:38;95634.19;;;5.03;100.00
62103;BME280;48077;48.104;11.702;2023-03-21T01:38:01;95650.50;;;5.14;100.00
62103;BME280;48077;48.104;11.702;2023-03-21T01:40:26;95624.00;;;5.00;100.00
62103;BME280;48077;48.104;11.702;2023-03-21T01:42:53;95608.69;;;4.89;100.00
62103;BME280;48077;48.104;11.702;2023-03-21T01:48:18;95639.91;;;5.07;100.00
62103;BME280;48077;48.104;11.702;2023-03-21T01:50:43;95646.25;;;5.13;100.00
62103;BME280;48077;48.104;11.702;2023-03-21T01:53:09;95633.84;;;5.13;100.00
62103;BME280;48077;48.104;11.702;2023-03-21T01:55:33;95638.31;;;5.13;100.00
62103;BME280;48077;48.104;11.702;2023-03-21T01:57:57;95594.88;;;4.94;100.00
62103;BME280;48077;48.104;11.702;2023-03-21T02:00:23;95621.06;;;5.17;100.00
62103;BME280;48077;48.104;11.702;2023-03-21T02:02:48;95613.91;;;5.11;100.00
62103;BME280;48077;48.104;11.702;2023-03-21T02:05:21;95611.25;;;5.11;100.00
62103;BME280;48077;48.104;11.702;2023-03-21T02:07:46;95580.84;;;4.93;100.00
62103;BME280;48077;48.104;11.702;2023-03-21T02:10:12;95609.59;;;5.10;100.00
62103;BME280;48077;48.104;11.702;2023-03-21T02:12:35;95621.44;;;5.14;100.00
62103;BME280;48077;48.104;11.702;2023-03-21T02:15:00;95603.88;;;5.06;100.00
62103;BME280;48077;48.104;11.702;2023-03-21T02:17:35;95598.81;;;5.04;100.00
62103;BME280;48077;48.104;11.702;2023-03-21T02:38:59;95611.28;;;5.17;100.00
62103;BME280;48077;48.104;11.702;2023-03-21T02:41:35;95626.19;;;5.25;100.00
62103;BME280;48077;48.104;11.702;2023-03-21T02:44:17;95612.72;;;5.20;100.00
62103;BME280;48077;48.104;11.702;2023-03-21T02:49:13;95610.31;;;5.25;100.00
62103;BME280;48077;48.104;11.702;2023-03-21T02:51:40;95613.34;;;5.22;100.00
62103;BME280;48077;48.104;11.702;2023-03-21T02:54:08;95623.31;;;5.26;100.00
62103;BME280;48077;48.104;11.702;2023-03-21T02:56:36;95601.31;;;5.13;100.00
62103;BME280;48077;48.104;11.702;2023-03-21T02:59:04;95593.56;;;5.11;100.00
62103;BME280;48077;48.104;11.702;2023-03-21T03:01:28;95613.97;;;5.24;100.00
62103;BME280;48077;48.104;11.702;2023-03-21T03:03:52;95596.56;;;5.08;100.00
62103;BME280;48077;48.104;11.702;2023-03-21T03:06:18;95603.31;;;5.11;100.00
62103;BME280;48077;48.104;11.702;2023-03-21T03:08:58;95625.31;;;5.18;100.00
62103;BME280;48077;48.104;11.702;2023-03-21T03:11:28;95626.97;;;5.19;100.00
62103;BME280;48077;48.104;11.702;2023-03-21T03:20:02;95583.50;;;5.00;100.00
62103;BME280;48077;48.104;11.702;2023-03-21T03:22:43;95571.69;;;4.96;100.00
62103;BME280;48077;48.104;11.702;2023-03-21T03:25:13;95579.25;;;4.99;100.00
62103;BME280;48077;48.104;11.702;2023-03-21T03:27:42;95595.94;;;5.06;100.00
62103;BME280;48077;48.104;11.702;2023-03-21T03:30:08;95612.50;;;5.15;100.00
62103;BME280;48077;48.104;11.702;2023-03-21T03:32:41;95584.97;;;5.02;100.00
62103;BME280;48077;48.104;11.702;2023-03-21T03:35:07;95598.41;;;5.07;100.00
62103;BME280;48077;48.104;11.702;2023-03-21T03:37:33;95569.69;;;4.98;100.00
62103;BME280;48077;48.104;11.702;2023-03-21T03:40:08;95585.63;;;5.11;100.00
62103;BME280;48077;48.104;11.702;2023-03-21T03:42:35;95593.16;;;5.14;100.00
62103;BME280;48077;48.104;11.702;2023-03-21T03:45:05;95596.00;;;5.13;100.00
62103;BME280;48077;48.104;11.702;2023-03-21T03:47:52;95603.78;;;5.21;100.00
62103;BME280;48077;48.104;11.702;2023-03-21T03:50:27;95586.69;;;5.17;100.00
62103;BME280;48077;48.104;11.702;2023-03-21T03:52:59;95597.28;;;5.23;100.00
62103;BME280;48077;48.104;11.702;2023-03-21T03:55:26;95597.28;;;5.23;100.00
62103;BME280;48077;48.104;11.702;2023-03-21T03:57:56;95597.66;;;5.20;100.00
62103;BME280;48077;48.104;11.702;2023-03-21T04:00:20;95605.41;;;5.22;100.00
62103;BME280;48077;48.104;11.702;2023-03-21T04:02:44;95602.56;;;5.23;100.00
62103;BME280;48077;48.104;11.702;2023-03-21T04:05:08;95604.41;;;5.23;100.00
62103;BME280;48077;48.104;11.702;2023-03-21T04:07:31;95580.53;;;5.10;100.00
62103;BME280;48077;48.104;11.702;2023-03-21T04:09:55;95576.66;;;5.12;100.00
62103;BME280;48077;48.104;11.702;2023-03-21T04:12:18;95605.84;;;5.25;100.00
62103;BME280;48077;48.104;11.702;2023-03-21T04:14:41;95586.88;;;5.15;100.00
62103;BME280;48077;48.104;11.702;2023-03-21T04:17:05;95590.50;;;5.14;100.00
62103;BME280;48077;48.104;11.702;2023-03-21T04:19:28;95603.56;;;5.22;100.00
62103;BME280;48077;48.104;11.702;2023-03-21T04:21:51;95588.88;;;5.13;100.00
62103;BME280;48077;48.104;11.702;2023-03-21T04:24:15;95601.53;;;5.24;100.00
62103;BME280;48077;48.104;11.702;2023-03-21T04:26:40;95604.63;;;5.28;100.00
62103;BME280;48077;48.104;11.702;2023-03-21T04:29:03;95587.91;;;5.21;100.00
62103;BME280;48077;48.104;11.702;2023-03-21T04:31:28;95598.13;;;5.31;100.00
62103;BME280;48077;48.104;11.702;2023-03-21T04:33:53;95584.25;;;5.22;100.00
62103;BME280;48077;48.104;11.702;2023-03-21T04:36:18;95580.97;;;5.20;100.00
62103;BME280;48077;48.104;11.702;2023-03-21T04:38:48;95590.38;;;5.29;100.00
62103;BME280;48077;48.104;11.702;2023-03-21T04:41:11;95598.13;;;5.31;100.00
62103;BME280;48077;48.104;11.702;2023-03-21T04:43:35;95598.13;;;5.31;100.00
62103;BME280;48077;48.104;11.702;2023-03-21T04:45:58;95597.31;;;5.30;100.00
62103;BME280;48077;48.104;11.702;2023-03-21T04:48:21;95601.97;;;5.28;100.00
62103;BME280;48077;48.104;11.702;2023-03-21T04:50:49;95590.97;;;5.24;100.00
62103;BME280;48077;48.104;11.702;2023-03-21T04:53:12;95594.03;;;5.28;100.00
62103;BME280;48077;48.104;11.702;2023-03-21T04:55:35;95578.16;;;5.21;100.00
62103;BME280;48077;48.104;11.702;2023-03-21T04:57:59;95588.31;;;5.24;100.00
62103;BME280;48077;48.104;11.702;2023-03-21T05:00:23;95585.91;;;5.30;100.00
62103;BME280;48077;48.104;11.702;2023-03-21T05:02:47;95587.34;;;5.32;100.00
62103;BME280;48077;48.104;11.702;2023-03-21T05:05:11;95583.88;;;5.25;100.00
62103;BME280;48077;48.104;11.702;2023-03-21T05:07:39;95587.94;;;5.27;100.00
62103;BME280;48077;48.104;11.702;2023-03-21T05:10:04;95577.53;;;5.19;100.00
62103;BME280;48077;48.104;11.702;2023-03-21T05:12:28;95586.28;;;5.26;100.00
62103;BME280;48077;48.104;11.702;2023-03-21T05:14:51;95582.03;;;5.25;100.00
62103;BME280;48077;48.104;11.702;2023-03-21T05:17:15;95576.09;;;5.17;100.00
62103;BME280;48077;48.104;11.702;2023-03-21T05:19:45;95584.22;;;5.15;100.00
62103;BME280;48077;48.104;11.702;2023-03-21T05:22:09;95586.69;;;5.17;100.00
62103;BME280;48077;48.104;11.702;2023-03-21T05:24:34;95594.38;;;5.18;100.00
62103;BME280;48077;48.104;11.702;2023-03-21T05:27:01;95590.50;;;5.14;100.00
62103;BME280;48077;48.104;11.702;2023-03-21T05:29:25;95591.38;;;5.21;100.00
62103;BME280;48077;48.104;11.702;2023-03-21T05:31:49;95586.28;;;5.20;100.00
62103;BME280;48077;48.104;11.702;2023-03-21T05:34:12;95568.72;;;5.12;100.00
62103;BME280;48077;48.104;11.702;2023-03-21T05:36:36;95591.41;;;5.28;100.00
62103;BME280;48077;48.104;11.702;2023-03-21T05:38:59;95585.69;;;5.24;100.00
62103;BME280;48077;48.104;11.702;2023-03-21T05:41:23;95591.22;;;5.30;100.00
62103;BME280;48077;48.104;11.702;2023-03-21T05:43:47;95568.78;;;5.19;100.00
62103;BME280;48077;48.104;11.702;2023-03-21T05:46:10;95596.69;;;5.35;100.00
62103;BME280;48077;48.104;11.702;2023-03-21T05:48:34;95577.56;;;5.26;100.00
62103;BME280;48077;48.104;11.702;2023-03-21T05:50:58;95592.22;;;5.35;100.00
62103;BME280;48077;48.104;11.702;2023-03-21T05:53:21;95591.59;;;5.33;100.00
62103;BME280;48077;48.104;11.702;2023-03-21T05:55:44;95576.53;;;5.27;100.00
62103;BME280;48077;48.104;11.702;2023-03-21T05:58:08;95601.81;;;5.43;100.00
62103;BME280;48077;48.104;11.702;2023-03-21T06:00:33;95607.94;;;5.43;100.00
62103;BME280;48077;48.104;11.702;2023-03-21T06:02:57;95588.16;;;5.33;100.00
62103;BME280;48077;48.104;11.702;2023-03-21T06:05:20;95603.25;;;5.45;100.00
62103;BME280;48077;48.104;11.702;2023-03-21T06:07:43;95601.44;;;5.46;100.00
62103;BME280;48077;48.104;11.702;2023-03-21T06:10:07;95602.88;;;5.48;100.00
62103;BME280;48077;48.104;11.702;2023-03-21T06:12:31;95601.03;;;5.49;100.00
62103;BME280;48077;48.104;11.702;2023-03-21T06:14:54;95609.22;;;5.54;100.00
62103;BME280;48077;48.104;11.702;2023-03-21T06:17:18;95613.06;;;5.58;100.00
62103;BME280;48077;48.104;11.702;2023-03-21T06:19:41;95606.59;;;5.61;100.00
62103;BME280;48077;48.104;11.702;2023-03-21T06:22:04;95613.13;;;5.65;100.00
62103;BME280;48077;48.104;11.702;2023-03-21T06:24:28;95610.66;;;5.70;100.00
62103;BME280;48077;48.104;11.702;2023-03-21T06:26:51;95599.88;;;5.65;100.00
62103;BME280;48077;48.104;11.702;2023-03-21T06:29:16;95618.66;;;5.83;100.00
62103;BME280;48077;48.104;11.702;2023-03-21T06:31:40;95617.25;;;5.87;100.00
62103;BME280;48077;48.104;11.702;2023-03-21T06:34:03;95617.91;;;5.96;100.00
62103;BME280;48077;48.104;11.702;2023-03-21T06:36:27;95622.41;;;6.02;100.00
62103;BME280;48077;48.104;11.702;2023-03-21T06:38:50;95612.00;;;6.01;100.00
62103;BME280;48077;48.104;11.702;2023-03-21T06:41:14;95623.44;;;6.15;100.00
62103;BME280;48077;48.104;11.702;2023-03-21T06:43:39;95603.06;;;6.08;100.00
62103;BME280;48077;48.104;11.702;2023-03-21T06:46:02;95617.34;;;6.27;100.00
62103;BME280;48077;48.104;11.702;2023-03-21T06:48:26;95595.13;;;6.22;100.00
62103;BME280;48077;48.104;11.702;2023-03-21T06:50:51;95600.84;;;6.32;100.00
62103;BME280;48077;48.104;11.702;2023-03-21T06:53:15;95622.88;;;6.46;100.00
62103;BME280;48077;48.104;11.702;2023-03-21T06:55:39;95618.78;;;6.50;100.00
62103;BME280;48077;48.104;11.702;2023-03-21T06:58:02;95620.41;;;6.58;100.00
62103;BME280;48077;48.104;11.702;2023-03-21T07:00:25;95600.44;;;6.55;100.00
62103;BME280;48077;48.104;11.702;2023-03-21T07:02:49;95610.41;;;6.66;100.00
62103;BME280;48077;48.104;11.702;2023-03-21T07:05:13;95625.69;;;6.78;100.00
62103;BME280;48077;48.104;11.702;2023-03-21T07:07:38;95628.13;;;6.86;100.00
62103;BME280;48077;48.104;11.702;2023-03-21T07:10:02;95606.72;;;6.81;100.00
62103;BME280;48077;48.104;11.702;2023-03-21T07:12:25;95631.19;;;6.96;100.00
62103;BME280;48077;48.104;11.702;2023-03-21T07:14:49;95627.72;;;7.02;100.00
62103;BME280;48077;48.104;11.702;2023-03-21T07:17:12;95616.69;;;7.05;100.00
62103;BME280;48077;48.104;11.702;2023-03-21T07:19:35;95620.34;;;7.11;100.00
62103;BME280;48077;48.104;11.702;2023-03-21T07:21:59;95613.81;;;7.14;99.72
62103;BME280;48077;48.104;11.702;2023-03-21T07:24:25;95605.84;;;7.14;98.91
62103;BME280;48077;48.104;11.702;2023-03-21T07:26:49;95618.44;;;7.25;98.31
62103;BME280;48077;48.104;11.702;2023-03-21T07:29:13;95613.16;;;7.25;97.22
62103;BME280;48077;48.104;11.702;2023-03-21T07:31:37;95627.22;;;7.32;96.59
62103;BME280;48077;48.104;11.702;2023-03-21T07:34:01;95624.75;;;7.44;96.01
62103;BME280;48077;48.104;11.702;2023-03-21T07:36:27;95625.53;;;7.51;95.37
62103;BME280;48077;48.104;11.702;2023-03-21T07:38:50;95615.09;;;7.49;94.44
62103;BME280;48077;48.104;11.702;2023-03-21T07:41:14;95623.88;;;7.57;93.95
62103;BME280;48077;48.104;11.702;2023-03-21T07:43:38;95628.34;;;7.63;93.95
62103;BME280;48077;48.104;11.702;2023-03-21T07:46:01;95601.44;;;7.53;93.55
62103;BME280;48077;48.104;11.702;2023-03-21T07:48:25;95626.25;;;7.72;93.22
62103;BME280;48077;48.104;11.702;2023-03-21T07:50:49;95613.03;;;7.65;92.71
62103;BME280;48077;48.104;11.702;2023-03-21T07:53:12;95626.63;;;7.82;92.03
62103;BME280;48077;48.104;11.702;2023-03-21T07:55:36;95621.91;;;7.84;91.63
62103;BME280;48077;48.104;11.702;2023-03-21T07:58:03;95624.75;;;7.89;90.33
62103;BME280;48077;48.104;11.702;2023-03-21T08:00:26;95622.63;;;7.98;90.42
62103;BME280;48077;48.104;11.702;2023-03-21T08:02:51;95612.25;;;7.96;90.53
62103;BME280;48077;48.104;11.702;2023-03-21T08:05:16;95622.19;;;8.07;89.85
62103;BME280;48077;48.104;11.702;2023-03-21T08:07:41;95603.63;;;8.01;89.62
62103;BME280;48077;48.104;11.702;2023-03-21T08:10:05;95621.94;;;8.16;89.72
62103;BME280;48077;48.104;11.702;2023-03-21T08:12:28;95606.25;;;8.07;88.67
62103;BME280;48077;48.104;11.702;2023-03-21T08:14:52;95626.34;;;8.28;88.93
62103;BME280;48077;48.104;11.702;2023-03-21T08:17:15;95622.84;;;8.35;88.67
62103;BME280;48077;48.104;11.702;2023-03-21T08:19:38;95619.75;;;8.38;86.89
62103;BME280;48077;48.104;11.702;2023-03-21T08:22:02;95618.72;;;8.39;86.75
62103;BME280;48077;48.104;11.702;2023-03-21T08:24:27;95623.59;;;8.48;86.66
62103;BME280;48077;48.104;11.702;2023-03-21T08:26:51;95612.38;;;8.40;85.87
62103;BME280;48077;48.104;11.702;2023-03-21T08:29:14;95620.06;;;8.55;86.11
62103;BME280;48077;48.104;11.702;2023-03-21T08:31:39;95618.41;;;8.54;85.92
62103;BME280;48077;48.104;11.702;2023-03-21T08:34:02;95618.75;;;8.64;85.66
62103;BME280;48077;48.104;11.702;2023-03-21T08:36:28;95610.97;;;8.69;85.42
62103;BME280;48077;48.104;11.702;2023-03-21T08:38:53;95615.00;;;8.71;83.81
62103;BME280;48077;48.104;11.702;2023-03-21T08:41:19;95605.84;;;8.67;83.68
62103;BME280;48077;48.104;11.702;2023-03-21T08:43:46;95617.63;;;8.78;83.25
62103;BME280;48077;48.104;11.702;2023-03-21T08:46:09;95613.63;;;8.87;83.07
62103;BME280;48077;48.104;11.702;2023-03-21T08:48:33;95613.59;;;8.94;83.48
62103;BME280;48077;48.104;11.702;2023-03-21T08:50:59;95608.41;;;8.99;82.56
62103;BME280;48077;48.104;11.702;2023-03-21T08:53:22;95587.41;;;8.91;82.86
62103;BME280;48077;48.104;11.702;2023-03-21T08:55:48;95606.06;;;9.09;82.03
62103;BME280;48077;48.104;11.702;2023-03-21T08:58:11;95588.91;;;9.05;82.16
62103;BME280;48077;48.104;11.702;2023-03-21T09:00:34;95611.69;;;9.20;83.35
62103;BME280;48077;48.104;11.702;2023-03-21T09:02:58;95617.53;;;9.28;82.88
62103;BME280;48077;48.104;11.702;2023-03-21T09:05:22;95612.59;;;9.32;81.79
62103;BME280;48077;48.104;11.702;2023-03-21T09:07:47;95603.25;;;9.23;80.16
62103;BME280;48077;48.104;11.702;2023-03-21T09:10:16;95587.97;;;9.18;79.75
62103;BME280;48077;48.104;11.702;2023-03-21T09:12:40;95604.38;;;9.34;77.22
62103;BME280;48077;48.104;11.702;2023-03-21T09:15:04;95599.56;;;9.42;77.24
62103;BME280;48077;48.104;11.702;2023-03-21T09:17:28;95589.13;;;9.41;76.82
62103;BME280;48077;48.104;11.702;2023-03-21T09:19:51;95594.53;;;9.52;75.88
62103;BME280;48077;48.104;11.702;2023-03-21T09:22:15;95602.34;;;9.66;75.56
62103;BME280;48077;48.104;11.702;2023-03-21T09:24:43;95599.59;;;9.72;74.30
62103;BME280;48077;48.104;11.702;2023-03-21T09:27:09;95604.03;;;9.79;73.49
62103;BME280;48077;48.104;11.702;2023-03-21T09:29:33;95589.78;;;9.73;73.13
62103;BME280;48077;48.104;11.702;2023-03-21T09:31:57;95599.78;;;9.89;74.04
62103;BME280;48077;48.104;11.702;2023-03-21T09:34:20;95575.78;;;9.78;73.83
62103;BME280;48077;48.104;11.702;2023-03-21T09:36:44;95600.91;;;10.00;74.48
62103;BME280;48077;48.104;11.702;2023-03-21T09:39:10;95599.53;;;10.09;75.35
62103;BME280;48077;48.104;11.702;2023-03-21T09:47:31;95576.78;;;10.37;71.38
62103;BME280;48077;48.104;11.702;2023-03-21T09:50:03;95566.69;;;10.27;71.65
62103;BME280;48077;48.104;11.702;2023-03-21T09:53:08;95567.19;;;10.36;71.13
62103;BME280;48077;48.104;11.702;2023-03-21T09:55:25;95581.69;;;10.52;71.94
62103;BME280;48077;48.104;11.702;2023-03-21T09:58:04;95586.09;;;10.58;71.00
62103;BME280;48077;48.104;11.702;2023-03-21T10:00:39;95589.59;;;10.59;70.57
62103;BME280;48077;48.104;11.702;2023-03-21T10:03:24;95580.75;;;10.58;71.36
62103;BME280;48077;48.104;11.702;2023-03-21T10:05:52;95581.00;;;10.68;70.19
62103;BME280;48077;48.104;11.702;2023-03-21T10:08:23;95561.75;;;10.66;70.47
62103;BME280;48077;48.104;11.702;2023-03-21T10:10:52;95575.56;;;10.87;69.92
62103;BME280;48077;48.104;11.702;2023-03-21T10:13:28;95569.88;;;10.95;69.66
62103;BME280;48077;48.104;11.702;2023-03-21T10:16:08;95576.47;;;11.16;69.69
62103;BME280;48077;48.104;11.702;2023-03-21T10:18:38;95582.53;;;11.23;69.11
62103;BME280;48077;48.104;11.702;2023-03-21T10:21:04;95567.19;;;11.19;68.32
62103;BME280;48077;48.104;11.702;2023-03-21T10:23:28;95576.69;;;11.26;68.22
62103;BME280;48077;48.104;11.702;2023-03-21T10:25:58;95571.38;;;11.26;66.91
62103;BME280;48077;48.104;11.702;2023-03-21T10:28:25;95561.03;;;11.30;67.56
62103;BME280;48077;48.104;11.702;2023-03-21T10:30:52;95549.97;;;11.38;66.50
62103;BME280;48077;48.104;11.702;2023-03-21T10:33:22;95561.19;;;11.52;66.58
62103;BME280;48077;48.104;11.702;2023-03-21T10:35:51;95554.59;;;11.54;65.01
62103;BME280;48077;48.104;11.702;2023-03-21T10:38:16;95558.25;;;11.65;64.99
62103;BME280;48077;48.104;11.702;2023-03-21T10:40:40;95547.53;;;11.77;64.69
62103;BME280;48077;48.104;11.702;2023-03-21T10:45:52;95546.66;;;12.00;63.83
62103;BME280;48077;48.104;11.702;2023-03-21T10:48:16;95533.28;;;12.00;62.60
62103;BME280;48077;48.104;11.702;2023-03-21T10:50:41;95528.75;;;12.01;61.89
62103;BME280;48077;48.104;11.702;2023-03-21T10:53:31;95526.50;;;12.09;62.04
62103;BME280;48077;48.104;11.702;2023-03-21T10:55:57;95540.94;;;12.25;62.03
62103;BME280;48077;48.104;11.702;2023-03-21T10:58:26;95542.38;;;12.33;61.03
62103;BME280;48077;48.104;11.702;2023-03-21T11:01:04;95537.47;;;12.42;60.54
62103;BME280;48077;48.104;11.702;2023-03-21T11:03:39;95520.69;;;12.46;59.97
62103;BME280;48077;48.104;11.702;2023-03-21T11:06:08;95532.84;;;12.71;57.71
62103;BME280;48077;48.104;11.702;2023-03-21T11:08:40;95532.81;;;12.88;57.35
62103;BME280;48077;48.104;11.702;2023-03-21T11:11:07;95516.16;;;13.03;56.66
62103;BME280;48077;48.104;11.702;2023-03-21T11:13:40;95533.84;;;13.26;54.49
62103;BME280;48077;48.104;11.702;2023-03-21T11:16:10;95530.53;;;13.19;54.49
62103;BME280;48077;48.104;11.702;2023-03-21T11:18:40;95524.84;;;13.32;55.24
62103;BME280;48077;48.104;11.702;2023-03-21T11:21:07;95527.22;;;13.50;54.87
62103;BME280;48077;48.104;11.702;2023-03-21T11:23:33;95515.44;;;13.73;54.48
62103;BME280;48077;48.104;11.702;2023-03-21T11:25:59;95520.06;;;13.83;53.08
62103;BME280;48077;48.104;11.702;2023-03-21T11:28:25;95519.88;;;14.17;54.37
62103;BME280;48077;48.104;11.702;2023-03-21T11:30:57;95492.28;;;14.22;52.38
62103;BME280;48077;48.104;11.702;2023-03-21T11:33:25;95502.38;;;14.42;53.15
62103;BME280;48077;48.104;11.702;2023-03-21T11:36:02;95505.56;;;14.38;53.46
62103;BME280;48077;48.104;11.702;2023-03-21T11:38:30;95498.31;;;14.39;53.25
62103;BME280;48077;48.104;11.702;2023-03-21T11:40:57;95469.50;;;14.56;52.87
62103;BME280;48077;48.104;11.702;2023-03-21T11:46:04;95486.00;;;14.75;50.96
62103;BME280;48077;48.104;11.702;2023-03-21T11:48:28;95475.94;;;14.55;50.83
62103;BME280;48077;48.104;11.702;2023-03-21T11:50:59;95487.72;;;14.92;51.42
62103;BME280;48077;48.104;11.702;2023-03-21T11:53:39;95477.97;;;14.81;50.52
62103;BME280;48077;48.104;11.702;2023-03-21T11:59:05;95442.97;;;15.18;50.26
62103;BME280;48077;48.104;11.702;2023-03-21T12:01:42;95467.03;;;15.50;49.39
62103;BME280;48077;48.104;11.702;2023-03-21T12:09:29;95443.88;;;17.08;46.22
62103;BME280;48077;48.104;11.702;2023-03-21T12:17:37;95427.75;;;17.58;42.95
62103;BME280;48077;48.104;11.702;2023-03-21T12:23:19;95426.09;;;17.67;42.42
62103;BME280;48077;48.104;11.702;2023-03-21T12:26:19;95412.66;;;18.07;41.07
62103;BME280;48077;48.104;11.702;2023-03-21T12:28:58;95415.31;;;18.41;40.54
62103;BME280;48077;48.104;11.702;2023-03-21T12:39:36;95380.19;;;18.70;37.40
62103;BME280;48077;48.104;11.702;2023-03-21T12:45:00;95392.03;;;18.74;37.24
62103;BME280;48077;48.104;11.702;2023-03-21T12:47:27;95405.00;;;19.01;37.16
62103;BME280;48077;48.104;11.702;2023-03-21T12:50:17;95396.00;;;19.30;36.25
62103;BME280;48077;48.104;11.702;2023-03-21T12:52:43;95393.34;;;18.82;37.08
62103;BME280;48077;48.104;11.702;2023-03-21T12:55:20;95392.81;;;18.51;38.00
62103;BME280;48077;48.104;11.702;2023-03-21T12:57:48;95392.34;;;18.44;39.13
62103;BME280;48077;48.104;11.702;2023-03-21T13:00:25;95380.34;;;18.55;39.16
62103;BME280;48077;48.104;11.702;2023-03-21T13:02:59;95384.00;;;18.69;38.26
62103;BME280;48077;48.104;11.702;2023-03-21T13:05:44;95366.16;;;18.44;38.46
62103;BME280;48077;48.104;11.702;2023-03-21T13:08:17;95364.31;;;18.64;38.81
62103;BME280;48077;48.104;11.702;2023-03-21T13:10:44;95355.66;;;18.91;38.45
62103;BME280;48077;48.104;11.702;2023-03-21T13:16:27;95348.88;;;19.36;35.79
62103;BME280;48077;48.104;11.702;2023-03-21T13:19:12;95348.31;;;19.58;35.83
62103;BME280;48077;48.104;11.702;2023-03-21T13:21:46;95326.84;;;19.81;35.84
62103;BME280;48077;48.104;11.702;2023-03-21T13:24:24;95345.63;;;20.24;34.86
62103;BME280;48077;48.104;11.702;2023-03-21T13:27:01;95344.00;;;20.09;35.19
62103;BME280;48077;48.104;11.702;2023-03-21T13:37:41;95323.06;;;19.82;35.24
62103;BME280;48077;48.104;11.702;2023-03-21T13:40:11;95313.41;;;19.76;34.77
62103;BME280;48077;48.104;11.702;2023-03-21T13:42:44;95305.59;;;19.74;34.93
62103;BME280;48077;48.104;11.702;2023-03-21T13:45:25;95327.94;;;19.04;34.46
62103;BME280;48077;48.104;11.702;2023-03-21T13:47:53;95305.75;;;18.35;35.90
62103;BME280;48077;48.104;11.702;2023-03-21T13:55:29;95315.16;;;17.39;37.61
62103;BME280;48077;48.104;11.702;2023-03-21T13:57:53;95302.66;;;17.14;38.40
62103;BME280;48077;48.104;11.702;2023-03-21T14:00:29;95308.03;;;17.19;39.00
62103;BME280;48077;48.104;11.702;2023-03-21T14:05:19;95302.28;;;16.92;38.36
62103;BME280;48077;48.104;11.702;2023-03-21T14:07:46;95317.31;;;16.98;39.67
62103;BME280;48077;48.104;11.702;2023-03-21T14:13:24;95302.56;;;16.80;38.05
62103;BME280;48077;48.104;11.702;2023-03-21T14:15:52;95310.00;;;17.04;38.51
62103;BME280;48077;48.104;11.702;2023-03-21T14:18:18;95312.00;;;16.83;38.30
62103;BME280;48077;48.104;11.702;2023-03-21T14:20:42;95305.56;;;16.68;38.77
62103;BME280;48077;48.104;11.702;2023-03-21T14:23:07;95291.34;;;16.57;38.98